KRHV

Details ICAO KRHV
Name Reid Hillview Of Santa Clara Co
Region United States
Timezone America/Los_Angeles (UTC-8.0)
Plans Departing 39
Arriving 19
Stats Elevation 133 ft / 41 m (AMSL)
Location 37.332871° -121.819797°
Runways 2
Magnetic Variation 13.316° E
Sunrise 2017-12-11 15:13:03 UTC / 2017-12-11 07:13:03 Local
Sunset 2017-12-12 00:51:14 UTC / 2017-12-11 16:51:14 Local
Advertisement - Login to hide

Runways

ID Width Length Bearing (true) Bearing (mag) Surface Threshold Offset Overrun Length
13L 75 ft / 23 m 3,102 ft / 946 m 142.99° 129.67° Asphalt 499 ft / 152 m 0 ft / 0 m
13R 75 ft / 23 m 3,100 ft / 945 m 142.98° 129.66° Asphalt 499 ft / 152 m 0 ft / 0 m
31L 75 ft / 23 m 3,100 ft / 945 m 322.98° 309.66° Asphalt 409 ft / 125 m 0 ft / 0 m
31R 75 ft / 23 m 3,102 ft / 946 m 322.99° 309.67° Asphalt 410 ft / 125 m 0 ft / 0 m

Map

Weather


0- 5 10 15 20 25 30 35+ Temperature / ° C

Clouds and Precipitation
Forecast for 2017-12-12 06:00 UTC. Updated 2 hours ago

Ground ~20,000 ft ~40,000 ft Winds

METAR

KRHV 120449Z 00000KT 10SM BKN100 11/03 A3029

TAF

Not found

Frequencies

Recorded 125.20 MHz ATIS
Unicom 122.95 MHz UNICOM
Tower 126.10 MHz TWR
Approach 120.10 MHz NORCAL APP
Approach 134.50 MHz NORCAL APP
Unicom 119.80 MHz CTAF
Ground 121.65 MHz GND
Tower 119.80 MHz TWR
Approach 133.95 MHz NORCAL APP
Departure 121.30 MHz NORCAL DEP
Warning: Do not use this data for real-world aviation or navigation. No guarantee of current accuracy is given.